sensor_id;sensor_type;location;lat;lon;timestamp;P1;durP1;ratioP1;P2;durP2;ratioP2
49153;SDS011;49455;52.252;9.124;2022-07-10T00:03:15;7.35;;;1.60;;
49153;SDS011;49455;52.252;9.124;2022-07-10T00:08:16;8.20;;;1.60;;
49153;SDS011;49455;52.252;9.124;2022-07-10T00:13:16;11.30;;;1.67;;
49153;SDS011;49455;52.252;9.124;2022-07-10T00:18:17;6.70;;;1.50;;
49153;SDS011;49455;52.252;9.124;2022-07-10T00:23:17;6.43;;;1.60;;
49153;SDS011;49455;52.252;9.124;2022-07-10T00:28:17;7.78;;;1.35;;
49153;SDS011;49455;52.252;9.124;2022-07-10T00:33:18;3.72;;;1.27;;
49153;SDS011;49455;52.252;9.124;2022-07-10T00:38:18;6.72;;;1.38;;
49153;SDS011;49455;52.252;9.124;2022-07-10T00:43:19;6.25;;;1.92;;
49153;SDS011;49455;52.252;9.124;2022-07-10T00:48:19;6.47;;;1.50;;
49153;SDS011;49455;52.252;9.124;2022-07-10T00:53:20;7.53;;;1.20;;
49153;SDS011;49455;52.252;9.124;2022-07-10T00:58:21;6.82;;;1.40;;
49153;SDS011;49455;52.252;9.124;2022-07-10T01:03:21;6.85;;;1.20;;
49153;SDS011;49455;52.252;9.124;2022-07-10T01:08:21;9.80;;;1.38;;
49153;SDS011;49455;52.252;9.124;2022-07-10T01:13:22;5.95;;;1.20;;
49153;SDS011;49455;52.252;9.124;2022-07-10T01:18:22;2.40;;;1.35;;
49153;SDS011;49455;52.252;9.124;2022-07-10T01:23:24;8.25;;;1.73;;
49153;SDS011;49455;52.252;9.124;2022-07-10T01:28:24;6.85;;;1.40;;
49153;SDS011;49455;52.252;9.124;2022-07-10T01:33:26;5.07;;;1.52;;
49153;SDS011;49455;52.252;9.124;2022-07-10T01:38:26;8.13;;;1.75;;
49153;SDS011;49455;52.252;9.124;2022-07-10T01:43:26;4.88;;;1.20;;
49153;SDS011;49455;52.252;9.124;2022-07-10T01:48:27;6.80;;;1.50;;
49153;SDS011;49455;52.252;9.124;2022-07-10T01:53:27;9.20;;;1.73;;
49153;SDS011;49455;52.252;9.124;2022-07-10T01:58:28;7.53;;;1.35;;
49153;SDS011;49455;52.252;9.124;2022-07-10T02:03:28;10.00;;;2.10;;
49153;SDS011;49455;52.252;9.124;2022-07-10T02:08:29;9.90;;;1.98;;
49153;SDS011;49455;52.252;9.124;2022-07-10T02:13:29;10.90;;;2.53;;
49153;SDS011;49455;52.252;9.124;2022-07-10T02:18:29;9.13;;;1.75;;
49153;SDS011;49455;52.252;9.124;2022-07-10T02:23:30;7.35;;;1.92;;
49153;SDS011;49455;52.252;9.124;2022-07-10T02:28:30;11.23;;;1.70;;
49153;SDS011;49455;52.252;9.124;2022-07-10T02:33:31;7.72;;;1.85;;
49153;SDS011;49455;52.252;9.124;2022-07-10T02:38:31;10.45;;;1.95;;
49153;SDS011;49455;52.252;9.124;2022-07-10T02:43:31;10.35;;;1.65;;
49153;SDS011;49455;52.252;9.124;2022-07-10T02:48:32;10.18;;;1.85;;
49153;SDS011;49455;52.252;9.124;2022-07-10T02:53:32;9.02;;;2.00;;
49153;SDS011;49455;52.252;9.124;2022-07-10T02:58:33;8.27;;;2.17;;
49153;SDS011;49455;52.252;9.124;2022-07-10T03:03:33;7.40;;;1.65;;
49153;SDS011;49455;52.252;9.124;2022-07-10T03:08:34;8.63;;;1.90;;
49153;SDS011;49455;52.252;9.124;2022-07-10T03:13:34;5.18;;;1.63;;
49153;SDS011;49455;52.252;9.124;2022-07-10T03:18:36;7.95;;;1.77;;
49153;SDS011;49455;52.252;9.124;2022-07-10T03:23:36;9.23;;;2.20;;
49153;SDS011;49455;52.252;9.124;2022-07-10T03:28:37;6.78;;;1.52;;
49153;SDS011;49455;52.252;9.124;2022-07-10T03:33:37;7.07;;;1.70;;
49153;SDS011;49455;52.252;9.124;2022-07-10T03:38:38;5.97;;;1.50;;
49153;SDS011;49455;52.252;9.124;2022-07-10T03:43:38;8.95;;;2.10;;
49153;SDS011;49455;52.252;9.124;2022-07-10T03:48:39;9.85;;;1.85;;
49153;SDS011;49455;52.252;9.124;2022-07-10T03:53:39;8.10;;;1.92;;
49153;SDS011;49455;52.252;9.124;2022-07-10T03:58:40;7.97;;;2.13;;
49153;SDS011;49455;52.252;9.124;2022-07-10T04:03:40;10.70;;;2.13;;
49153;SDS011;49455;52.252;9.124;2022-07-10T04:08:40;8.35;;;2.50;;
49153;SDS011;49455;52.252;9.124;2022-07-10T04:13:41;12.18;;;1.88;;
49153;SDS011;49455;52.252;9.124;2022-07-10T04:18:42;10.38;;;1.98;;
49153;SDS011;49455;52.252;9.124;2022-07-10T04:23:42;7.55;;;1.90;;
49153;SDS011;49455;52.252;9.124;2022-07-10T04:28:42;8.82;;;1.50;;
49153;SDS011;49455;52.252;9.124;2022-07-10T04:33:43;7.88;;;2.13;;
49153;SDS011;49455;52.252;9.124;2022-07-10T04:38:43;9.43;;;1.95;;
49153;SDS011;49455;52.252;9.124;2022-07-10T04:43:44;9.10;;;2.25;;
49153;SDS011;49455;52.252;9.124;2022-07-10T04:48:45;10.52;;;1.95;;
49153;SDS011;49455;52.252;9.124;2022-07-10T04:53:45;8.52;;;1.88;;
49153;SDS011;49455;52.252;9.124;2022-07-10T04:58:45;8.15;;;1.83;;
49153;SDS011;49455;52.252;9.124;2022-07-10T05:03:46;10.48;;;2.53;;
49153;SDS011;49455;52.252;9.124;2022-07-10T05:08:47;7.07;;;2.17;;
49153;SDS011;49455;52.252;9.124;2022-07-10T05:13:47;9.23;;;2.03;;
49153;SDS011;49455;52.252;9.124;2022-07-10T05:18:48;7.63;;;1.48;;
49153;SDS011;49455;52.252;9.124;2022-07-10T05:23:48;7.57;;;1.75;;
49153;SDS011;49455;52.252;9.124;2022-07-10T05:28:49;7.65;;;2.08;;
49153;SDS011;49455;52.252;9.124;2022-07-10T05:33:52;15.20;;;2.10;;
49153;SDS011;49455;52.252;9.124;2022-07-10T05:38:53;8.70;;;1.95;;
49153;SDS011;49455;52.252;9.124;2022-07-10T05:43:53;10.57;;;1.80;;
49153;SDS011;49455;52.252;9.124;2022-07-10T05:48:54;12.07;;;2.28;;
49153;SDS011;49455;52.252;9.124;2022-07-10T05:53:54;12.32;;;2.40;;
49153;SDS011;49455;52.252;9.124;2022-07-10T05:58:55;9.73;;;2.05;;
49153;SDS011;49455;52.252;9.124;2022-07-10T06:03:55;8.52;;;1.90;;
49153;SDS011;49455;52.252;9.124;2022-07-10T06:08:56;10.65;;;1.88;;
49153;SDS011;49455;52.252;9.124;2022-07-10T06:13:56;8.35;;;2.08;;
49153;SDS011;49455;52.252;9.124;2022-07-10T06:18:56;7.20;;;1.80;;
49153;SDS011;49455;52.252;9.124;2022-07-10T06:24:00;9.38;;;2.38;;
49153;SDS011;49455;52.252;9.124;2022-07-10T06:29:00;9.15;;;2.03;;
49153;SDS011;49455;52.252;9.124;2022-07-10T06:34:01;8.90;;;2.30;;
49153;SDS011;49455;52.252;9.124;2022-07-10T06:39:01;10.15;;;1.92;;
49153;SDS011;49455;52.252;9.124;2022-07-10T06:44:02;8.32;;;1.80;;
49153;SDS011;49455;52.252;9.124;2022-07-10T06:49:02;9.85;;;1.83;;
49153;SDS011;49455;52.252;9.124;2022-07-10T06:54:03;10.68;;;2.53;;
49153;SDS011;49455;52.252;9.124;2022-07-10T06:59:03;11.63;;;1.70;;
49153;SDS011;49455;52.252;9.124;2022-07-10T07:04:04;9.23;;;2.00;;
49153;SDS011;49455;52.252;9.124;2022-07-10T07:09:04;7.13;;;1.92;;
49153;SDS011;49455;52.252;9.124;2022-07-10T07:14:05;9.48;;;1.85;;
49153;SDS011;49455;52.252;9.124;2022-07-10T07:19:14;7.85;;;1.98;;
49153;SDS011;49455;52.252;9.124;2022-07-10T07:24:17;8.77;;;1.73;;
49153;SDS011;49455;52.252;9.124;2022-07-10T07:29:18;8.57;;;2.05;;
49153;SDS011;49455;52.252;9.124;2022-07-10T07:34:18;8.45;;;1.90;;
49153;SDS011;49455;52.252;9.124;2022-07-10T07:39:19;10.38;;;2.53;;
49153;SDS011;49455;52.252;9.124;2022-07-10T07:44:19;7.53;;;1.75;;
49153;SDS011;49455;52.252;9.124;2022-07-10T07:49:20;10.15;;;1.98;;
49153;SDS011;49455;52.252;9.124;2022-07-10T07:54:20;8.15;;;2.20;;
49153;SDS011;49455;52.252;9.124;2022-07-10T07:59:21;10.15;;;2.00;;
49153;SDS011;49455;52.252;9.124;2022-07-10T08:04:21;9.57;;;2.25;;
49153;SDS011;49455;52.252;9.124;2022-07-10T08:09:21;8.23;;;1.63;;
49153;SDS011;49455;52.252;9.124;2022-07-10T08:14:22;14.65;;;2.50;;
49153;SDS011;49455;52.252;9.124;2022-07-10T08:19:22;9.50;;;2.13;;
49153;SDS011;49455;52.252;9.124;2022-07-10T08:24:23;10.82;;;1.85;;
49153;SDS011;49455;52.252;9.124;2022-07-10T08:29:23;11.95;;;2.13;;
49153;SDS011;49455;52.252;9.124;2022-07-10T08:34:24;5.90;;;1.92;;
49153;SDS011;49455;52.252;9.124;2022-07-10T08:39:24;10.05;;;2.35;;
49153;SDS011;49455;52.252;9.124;2022-07-10T08:44:25;7.72;;;2.00;;
49153;SDS011;49455;52.252;9.124;2022-07-10T08:49:27;11.80;;;2.63;;
49153;SDS011;49455;52.252;9.124;2022-07-10T08:59:29;7.35;;;1.80;;
49153;SDS011;49455;52.252;9.124;2022-07-10T09:04:30;7.73;;;2.07;;
49153;SDS011;49455;52.252;9.124;2022-07-10T09:09:30;13.15;;;2.50;;
49153;SDS011;49455;52.252;9.124;2022-07-10T09:14:31;10.23;;;1.85;;
49153;SDS011;49455;52.252;9.124;2022-07-10T09:19:31;9.68;;;2.28;;
49153;SDS011;49455;52.252;9.124;2022-07-10T09:24:38;10.80;;;1.98;;
49153;SDS011;49455;52.252;9.124;2022-07-10T09:34:48;8.20;;;2.25;;
49153;SDS011;49455;52.252;9.124;2022-07-10T09:40:00;9.13;;;1.80;;
49153;SDS011;49455;52.252;9.124;2022-07-10T09:50:19;5.93;;;1.80;;
49153;SDS011;49455;52.252;9.124;2022-07-10T10:00:26;6.40;;;1.80;;
49153;SDS011;49455;52.252;9.124;2022-07-10T10:10:46;9.82;;;2.40;;
49153;SDS011;49455;52.252;9.124;2022-07-10T10:15:48;9.55;;;2.00;;
49153;SDS011;49455;52.252;9.124;2022-07-10T10:20:50;7.70;;;1.60;;
49153;SDS011;49455;52.252;9.124;2022-07-10T10:25:53;5.75;;;1.90;;
49153;SDS011;49455;52.252;9.124;2022-07-10T10:30:55;8.13;;;1.80;;
49153;SDS011;49455;52.252;9.124;2022-07-10T10:35:58;7.13;;;1.90;;
49153;SDS011;49455;52.252;9.124;2022-07-10T10:41:21;4.78;;;1.52;;
49153;SDS011;49455;52.252;9.124;2022-07-10T10:46:24;5.55;;;1.80;;
49153;SDS011;49455;52.252;9.124;2022-07-10T10:51:32;11.30;;;2.00;;
49153;SDS011;49455;52.252;9.124;2022-07-10T11:02:28;8.75;;;2.95;;
49153;SDS011;49455;52.252;9.124;2022-07-10T11:13:01;5.15;;;2.08;;
49153;SDS011;49455;52.252;9.124;2022-07-10T11:18:06;6.78;;;1.85;;
49153;SDS011;49455;52.252;9.124;2022-07-10T11:28:14;4.45;;;1.67;;
49153;SDS011;49455;52.252;9.124;2022-07-10T11:33:21;6.60;;;1.90;;
49153;SDS011;49455;52.252;9.124;2022-07-10T11:38:23;4.70;;;1.90;;
49153;SDS011;49455;52.252;9.124;2022-07-10T11:43:24;6.43;;;1.77;;
49153;SDS011;49455;52.252;9.124;2022-07-10T11:48:25;6.90;;;1.77;;
49153;SDS011;49455;52.252;9.124;2022-07-10T11:53:26;11.18;;;2.28;;
49153;SDS011;49455;52.252;9.124;2022-07-10T11:58:27;6.47;;;2.00;;
49153;SDS011;49455;52.252;9.124;2022-07-10T12:03:27;8.13;;;1.70;;
49153;SDS011;49455;52.252;9.124;2022-07-10T12:08:27;6.77;;;1.50;;
49153;SDS011;49455;52.252;9.124;2022-07-10T12:13:28;4.88;;;1.45;;
49153;SDS011;49455;52.252;9.124;2022-07-10T12:18:28;7.00;;;1.40;;
49153;SDS011;49455;52.252;9.124;2022-07-10T12:23:29;2.63;;;1.13;;
49153;SDS011;49455;52.252;9.124;2022-07-10T12:28:30;5.15;;;1.48;;
49153;SDS011;49455;52.252;9.124;2022-07-10T12:33:30;3.97;;;1.35;;
49153;SDS011;49455;52.252;9.124;2022-07-10T12:38:31;6.47;;;1.98;;
49153;SDS011;49455;52.252;9.124;2022-07-10T12:43:31;4.57;;;1.90;;
49153;SDS011;49455;52.252;9.124;2022-07-10T12:48:32;6.97;;;1.77;;
49153;SDS011;49455;52.252;9.124;2022-07-10T12:53:32;8.80;;;2.28;;
49153;SDS011;49455;52.252;9.124;2022-07-10T12:58:33;6.78;;;2.08;;
49153;SDS011;49455;52.252;9.124;2022-07-10T13:03:33;6.78;;;3.58;;
49153;SDS011;49455;52.252;9.124;2022-07-10T13:08:43;7.10;;;2.65;;
49153;SDS011;49455;52.252;9.124;2022-07-10T13:13:45;19.13;;;6.95;;
49153;SDS011;49455;52.252;9.124;2022-07-10T13:18:45;11.68;;;6.88;;
49153;SDS011;49455;52.252;9.124;2022-07-10T13:23:46;7.35;;;2.53;;
49153;SDS011;49455;52.252;9.124;2022-07-10T13:28:46;5.85;;;1.90;;
49153;SDS011;49455;52.252;9.124;2022-07-10T13:33:47;5.72;;;2.20;;
49153;SDS011;49455;52.252;9.124;2022-07-10T13:38:47;8.90;;;2.75;;
49153;SDS011;49455;52.252;9.124;2022-07-10T13:43:47;5.07;;;2.00;;
49153;SDS011;49455;52.252;9.124;2022-07-10T13:48:48;6.80;;;2.20;;
49153;SDS011;49455;52.252;9.124;2022-07-10T13:53:48;8.23;;;2.08;;
49153;SDS011;49455;52.252;9.124;2022-07-10T13:58:49;6.47;;;2.33;;
49153;SDS011;49455;52.252;9.124;2022-07-10T14:03:49;7.17;;;2.00;;
49153;SDS011;49455;52.252;9.124;2022-07-10T14:08:50;7.07;;;1.77;;
49153;SDS011;49455;52.252;9.124;2022-07-10T14:13:50;5.23;;;1.80;;
49153;SDS011;49455;52.252;9.124;2022-07-10T14:18:51;9.25;;;2.13;;
49153;SDS011;49455;52.252;9.124;2022-07-10T14:23:51;5.32;;;1.80;;
49153;SDS011;49455;52.252;9.124;2022-07-10T14:28:52;7.13;;;2.30;;
49153;SDS011;49455;52.252;9.124;2022-07-10T14:33:52;6.67;;;2.23;;
49153;SDS011;49455;52.252;9.124;2022-07-10T14:38:53;5.07;;;2.00;;
49153;SDS011;49455;52.252;9.124;2022-07-10T14:43:54;4.60;;;1.95;;
49153;SDS011;49455;52.252;9.124;2022-07-10T14:48:54;10.30;;;3.57;;
49153;SDS011;49455;52.252;9.124;2022-07-10T14:53:55;11.50;;;3.00;;
49153;SDS011;49455;52.252;9.124;2022-07-10T14:58:55;9.13;;;2.20;;
49153;SDS011;49455;52.252;9.124;2022-07-10T15:03:56;9.17;;;3.07;;
49153;SDS011;49455;52.252;9.124;2022-07-10T15:08:57;6.57;;;2.25;;
49153;SDS011;49455;52.252;9.124;2022-07-10T15:13:57;7.00;;;1.83;;
49153;SDS011;49455;52.252;9.124;2022-07-10T15:18:58;8.43;;;2.47;;
49153;SDS011;49455;52.252;9.124;2022-07-10T15:23:58;6.43;;;2.20;;
49153;SDS011;49455;52.252;9.124;2022-07-10T15:28:59;6.13;;;1.67;;
49153;SDS011;49455;52.252;9.124;2022-07-10T15:34:00;5.03;;;1.70;;
49153;SDS011;49455;52.252;9.124;2022-07-10T15:39:07;5.28;;;1.40;;
49153;SDS011;49455;52.252;9.124;2022-07-10T15:44:07;7.33;;;2.07;;
49153;SDS011;49455;52.252;9.124;2022-07-10T15:49:08;5.47;;;1.57;;
49153;SDS011;49455;52.252;9.124;2022-07-10T15:54:08;3.47;;;1.60;;
49153;SDS011;49455;52.252;9.124;2022-07-10T15:59:09;5.95;;;1.70;;
49153;SDS011;49455;52.252;9.124;2022-07-10T16:04:09;5.05;;;1.20;;
49153;SDS011;49455;52.252;9.124;2022-07-10T16:09:09;6.00;;;2.00;;
49153;SDS011;49455;52.252;9.124;2022-07-10T16:14:10;2.40;;;1.13;;
49153;SDS011;49455;52.252;9.124;2022-07-10T16:19:11;4.45;;;1.30;;
49153;SDS011;49455;52.252;9.124;2022-07-10T16:24:11;7.30;;;1.53;;
49153;SDS011;49455;52.252;9.124;2022-07-10T16:29:11;5.10;;;1.80;;
49153;SDS011;49455;52.252;9.124;2022-07-10T16:34:12;6.70;;;1.73;;
49153;SDS011;49455;52.252;9.124;2022-07-10T16:39:12;2.50;;;1.40;;
49153;SDS011;49455;52.252;9.124;2022-07-10T16:44:13;4.75;;;1.50;;
49153;SDS011;49455;52.252;9.124;2022-07-10T16:49:13;3.20;;;1.20;;
49153;SDS011;49455;52.252;9.124;2022-07-10T16:54:13;5.50;;;1.40;;
49153;SDS011;49455;52.252;9.124;2022-07-10T16:59:14;6.70;;;1.38;;
49153;SDS011;49455;52.252;9.124;2022-07-10T17:04:14;3.33;;;1.10;;
49153;SDS011;49455;52.252;9.124;2022-07-10T17:09:15;4.47;;;1.38;;
49153;SDS011;49455;52.252;9.124;2022-07-10T17:14:15;4.88;;;1.10;;
49153;SDS011;49455;52.252;9.124;2022-07-10T17:19:16;4.10;;;1.38;;
49153;SDS011;49455;52.252;9.124;2022-07-10T17:24:16;3.80;;;1.20;;
49153;SDS011;49455;52.252;9.124;2022-07-10T17:29:17;7.07;;;1.30;;
49153;SDS011;49455;52.252;9.124;2022-07-10T17:34:18;3.75;;;1.08;;
49153;SDS011;49455;52.252;9.124;2022-07-10T17:39:18;2.95;;;1.20;;
49153;SDS011;49455;52.252;9.124;2022-07-10T17:44:19;2.25;;;1.25;;
49153;SDS011;49455;52.252;9.124;2022-07-10T17:49:19;5.00;;;1.70;;
49153;SDS011;49455;52.252;9.124;2022-07-10T17:54:20;4.72;;;1.23;;
49153;SDS011;49455;52.252;9.124;2022-07-10T17:59:20;4.03;;;1.23;;
49153;SDS011;49455;52.252;9.124;2022-07-10T18:04:21;6.47;;;1.70;;
49153;SDS011;49455;52.252;9.124;2022-07-10T18:09:21;3.13;;;1.17;;
49153;SDS011;49455;52.252;9.124;2022-07-10T18:14:22;4.18;;;1.70;;
49153;SDS011;49455;52.252;9.124;2022-07-10T18:19:23;4.10;;;1.50;;
49153;SDS011;49455;52.252;9.124;2022-07-10T18:24:23;4.78;;;1.88;;
49153;SDS011;49455;52.252;9.124;2022-07-10T18:29:24;2.80;;;1.00;;
49153;SDS011;49455;52.252;9.124;2022-07-10T18:34:24;3.45;;;1.55;;
49153;SDS011;49455;52.252;9.124;2022-07-10T18:39:25;4.22;;;1.40;;
49153;SDS011;49455;52.252;9.124;2022-07-10T18:44:25;8.18;;;1.17;;
49153;SDS011;49455;52.252;9.124;2022-07-10T18:49:27;7.37;;;1.33;;
49153;SDS011;49455;52.252;9.124;2022-07-10T18:54:27;3.90;;;1.20;;
49153;SDS011;49455;52.252;9.124;2022-07-10T18:59:28;4.57;;;0.90;;
49153;SDS011;49455;52.252;9.124;2022-07-10T19:04:29;3.63;;;0.90;;
49153;SDS011;49455;52.252;9.124;2022-07-10T19:09:29;2.75;;;0.82;;
49153;SDS011;49455;52.252;9.124;2022-07-10T19:14:30;2.55;;;0.80;;
49153;SDS011;49455;52.252;9.124;2022-07-10T19:19:30;1.83;;;0.60;;
49153;SDS011;49455;52.252;9.124;2022-07-10T20:42:18;2.58;;;2.10;;
49153;SDS011;49455;52.252;9.124;2022-07-10T20:47:19;3.15;;;1.45;;
49153;SDS011;49455;52.252;9.124;2022-07-10T20:52:20;1.92;;;1.20;;
49153;SDS011;49455;52.252;9.124;2022-07-10T20:57:20;2.47;;;1.30;;
49153;SDS011;49455;52.252;9.124;2022-07-10T21:02:21;3.78;;;1.25;;
49153;SDS011;49455;52.252;9.124;2022-07-10T21:07:21;5.43;;;1.80;;
49153;SDS011;49455;52.252;9.124;2022-07-10T21:12:22;3.85;;;1.65;;
49153;SDS011;49455;52.252;9.124;2022-07-10T21:17:22;3.83;;;1.50;;
49153;SDS011;49455;52.252;9.124;2022-07-10T21:22:22;2.30;;;1.60;;
49153;SDS011;49455;52.252;9.124;2022-07-10T21:27:23;3.78;;;1.63;;
49153;SDS011;49455;52.252;9.124;2022-07-10T21:32:23;3.45;;;1.70;;
49153;SDS011;49455;52.252;9.124;2022-07-10T21:37:24;3.42;;;1.98;;
49153;SDS011;49455;52.252;9.124;2022-07-10T21:42:24;4.90;;;2.13;;
49153;SDS011;49455;52.252;9.124;2022-07-10T21:47:25;5.78;;;2.00;;
49153;SDS011;49455;52.252;9.124;2022-07-10T21:52:25;3.53;;;2.00;;
49153;SDS011;49455;52.252;9.124;2022-07-10T21:57:26;4.45;;;2.17;;
49153;SDS011;49455;52.252;9.124;2022-07-10T22:02:26;4.85;;;2.20;;
49153;SDS011;49455;52.252;9.124;2022-07-10T22:07:27;3.65;;;2.20;;
49153;SDS011;49455;52.252;9.124;2022-07-10T22:12:27;3.65;;;2.30;;
49153;SDS011;49455;52.252;9.124;2022-07-10T22:17:28;5.57;;;2.35;;
49153;SDS011;49455;52.252;9.124;2022-07-10T22:22:28;5.13;;;2.33;;
49153;SDS011;49455;52.252;9.124;2022-07-10T22:27:29;5.97;;;2.78;;
49153;SDS011;49455;52.252;9.124;2022-07-10T22:32:29;5.82;;;2.40;;
49153;SDS011;49455;52.252;9.124;2022-07-10T22:37:30;6.25;;;2.53;;
49153;SDS011;49455;52.252;9.124;2022-07-10T22:42:30;3.85;;;2.65;;
49153;SDS011;49455;52.252;9.124;2022-07-10T22:47:30;4.45;;;2.90;;
49153;SDS011;49455;52.252;9.124;2022-07-10T22:52:31;4.32;;;2.83;;
49153;SDS011;49455;52.252;9.124;2022-07-10T22:57:34;6.57;;;2.72;;
49153;SDS011;49455;52.252;9.124;2022-07-10T23:02:35;5.30;;;3.10;;
49153;SDS011;49455;52.252;9.124;2022-07-10T23:07:35;5.00;;;2.60;;
49153;SDS011;49455;52.252;9.124;2022-07-10T23:12:36;4.10;;;2.70;;
49153;SDS011;49455;52.252;9.124;2022-07-10T23:17:36;6.03;;;2.97;;
49153;SDS011;49455;52.252;9.124;2022-07-10T23:22:37;4.82;;;2.90;;
49153;SDS011;49455;52.252;9.124;2022-07-10T23:27:37;7.10;;;3.30;;
49153;SDS011;49455;52.252;9.124;2022-07-10T23:32:38;8.25;;;3.20;;
49153;SDS011;49455;52.252;9.124;2022-07-10T23:37:38;5.28;;;3.05;;
49153;SDS011;49455;52.252;9.124;2022-07-10T23:42:39;6.07;;;3.15;;
49153;SDS011;49455;52.252;9.124;2022-07-10T23:47:39;7.97;;;4.00;;
49153;SDS011;49455;52.252;9.124;2022-07-10T23:52:41;7.85;;;3.67;;
